<?xml version="1.0" encoding="UTF-8" standalone="no" ?>
<gpx xmlns="http://www.topografix.com/GPX/1/1" xmlns:xsi="http://www.w3.org/2001/XMLSchema-instance" xsi:schemaLocation="http://www.topografix.com/GPX/1/1 http://www.topografix.com/GPX/1/1/gpx.xsd" version="1.1" creator="VisuGPX - https://www.visugpx.com">
  <metadata>
    <name>Autour de Rosporden</name>
    <desc><![CDATA[Circuit très agréable sans grande difficulté, accessible aux marcheurs moyens]]></desc>
  </metadata>
  <trk>
    <name><![CDATA[22-AVR-14 16:34:20]]></name>
    <trkseg>
      <trkpt lat="47.93779" lon="-3.85528">
        <ele>118.38</ele>
        <time>2014-04-22T12:12:26Z</time>
      </trkpt>
      <trkpt lat="47.93772" lon="-3.85539">
        <ele>116.46</ele>
        <time>2014-04-22T12:12:49Z</time>
      </trkpt>
      <trkpt lat="47.93756" lon="-3.85536">
        <ele>113.57</ele>
        <time>2014-04-22T12:13:10Z</time>
      </trkpt>
      <trkpt lat="47.93753" lon="-3.85539">
        <ele>114.53</ele>
        <time>2014-04-22T12:13:31Z</time>
      </trkpt>
      <trkpt lat="47.93752" lon="-3.85537">
        <ele>113.09</ele>
        <time>2014-04-22T12:13:50Z</time>
      </trkpt>
      <trkpt lat="47.93752" lon="-3.85536">
        <ele>115.01</ele>
        <time>2014-04-22T12:14:06Z</time>
      </trkpt>
      <trkpt lat="47.93755" lon="-3.85535">
        <ele>115.5</ele>
        <time>2014-04-22T12:14:26Z</time>
      </trkpt>
      <trkpt lat="47.93764" lon="-3.85535">
        <ele>116.46</ele>
        <time>2014-04-22T12:14:42Z</time>
      </trkpt>
      <trkpt lat="47.93767" lon="-3.85535">
        <ele>116.46</ele>
        <time>2014-04-22T12:14:45Z</time>
      </trkpt>
      <trkpt lat="47.93776" lon="-3.85534">
        <ele>116.46</ele>
        <time>2014-04-22T12:14:53Z</time>
      </trkpt>
      <trkpt lat="47.9379" lon="-3.85531">
        <ele>115.98</ele>
        <time>2014-04-22T12:15:07Z</time>
      </trkpt>
      <trkpt lat="47.93804" lon="-3.85523">
        <ele>113.09</ele>
        <time>2014-04-22T12:15:21Z</time>
      </trkpt>
      <trkpt lat="47.93816" lon="-3.85517">
        <ele>108.77</ele>
        <time>2014-04-22T12:15:36Z</time>
      </trkpt>
      <trkpt lat="47.93817" lon="-3.85541">
        <ele>104.92</ele>
        <time>2014-04-22T12:15:51Z</time>
      </trkpt>
      <trkpt lat="47.93816" lon="-3.85567">
        <ele>100.6</ele>
        <time>2014-04-22T12:16:09Z</time>
      </trkpt>
      <trkpt lat="47.93827" lon="-3.85571">
        <ele>102.04</ele>
        <time>2014-04-22T12:16:25Z</time>
      </trkpt>
      <trkpt lat="47.93846" lon="-3.85565">
        <ele>104.92</ele>
        <time>2014-04-22T12:16:42Z</time>
      </trkpt>
      <trkpt lat="47.93852" lon="-3.85563">
        <ele>105.4</ele>
        <time>2014-04-22T12:16:57Z</time>
      </trkpt>
      <trkpt lat="47.93872" lon="-3.85559">
        <ele>103</ele>
        <time>2014-04-22T12:17:17Z</time>
      </trkpt>
      <trkpt lat="47.93892" lon="-3.85555">
        <ele>103.96</ele>
        <time>2014-04-22T12:17:39Z</time>
      </trkpt>
      <trkpt lat="47.93928" lon="-3.85555">
        <ele>104.92</ele>
        <time>2014-04-22T12:18:00Z</time>
      </trkpt>
      <trkpt lat="47.93943" lon="-3.85552">
        <ele>105.88</ele>
        <time>2014-04-22T12:18:18Z</time>
      </trkpt>
      <trkpt lat="47.93963" lon="-3.85548">
        <ele>108.29</ele>
        <time>2014-04-22T12:18:33Z</time>
      </trkpt>
      <trkpt lat="47.93982" lon="-3.8555">
        <ele>115.98</ele>
        <time>2014-04-22T12:18:47Z</time>
      </trkpt>
      <trkpt lat="47.93995" lon="-3.85558">
        <ele>121.74</ele>
        <time>2014-04-22T12:18:58Z</time>
      </trkpt>
      <trkpt lat="47.94005" lon="-3.85562">
        <ele>123.67</ele>
        <time>2014-04-22T12:19:09Z</time>
      </trkpt>
      <trkpt lat="47.94006" lon="-3.85571">
        <ele>123.19</ele>
        <time>2014-04-22T12:19:15Z</time>
      </trkpt>
      <trkpt lat="47.94017" lon="-3.85601">
        <ele>122.22</ele>
        <time>2014-04-22T12:19:32Z</time>
      </trkpt>
      <trkpt lat="47.94029" lon="-3.85621">
        <ele>120.78</ele>
        <time>2014-04-22T12:19:50Z</time>
      </trkpt>
      <trkpt lat="47.94036" lon="-3.85652">
        <ele>120.3</ele>
        <time>2014-04-22T12:20:06Z</time>
      </trkpt>
      <trkpt lat="47.94044" lon="-3.85669">
        <ele>115.98</ele>
        <time>2014-04-22T12:20:22Z</time>
      </trkpt>
      <trkpt lat="47.94063" lon="-3.85705">
        <ele>115.5</ele>
        <time>2014-04-22T12:20:43Z</time>
      </trkpt>
      <trkpt lat="47.94072" lon="-3.85724">
        <ele>109.73</ele>
        <time>2014-04-22T12:21:00Z</time>
      </trkpt>
      <trkpt lat="47.94088" lon="-3.85744">
        <ele>103.48</ele>
        <time>2014-04-22T12:21:18Z</time>
      </trkpt>
      <trkpt lat="47.94107" lon="-3.85757">
        <ele>100.11</ele>
        <time>2014-04-22T12:21:35Z</time>
      </trkpt>
      <trkpt lat="47.94128" lon="-3.85767">
        <ele>98.19</ele>
        <time>2014-04-22T12:21:52Z</time>
      </trkpt>
      <trkpt lat="47.94135" lon="-3.85774">
        <ele>101.56</ele>
        <time>2014-04-22T12:21:57Z</time>
      </trkpt>
      <trkpt lat="47.94152" lon="-3.8579">
        <ele>106.84</ele>
        <time>2014-04-22T12:22:13Z</time>
      </trkpt>
      <trkpt lat="47.94163" lon="-3.85816">
        <ele>109.25</ele>
        <time>2014-04-22T12:22:28Z</time>
      </trkpt>
      <trkpt lat="47.94166" lon="-3.85827">
        <ele>108.29</ele>
        <time>2014-04-22T12:22:42Z</time>
      </trkpt>
      <trkpt lat="47.94163" lon="-3.8586">
        <ele>107.32</ele>
        <time>2014-04-22T12:22:59Z</time>
      </trkpt>
      <trkpt lat="47.94163" lon="-3.85883">
        <ele>106.84</ele>
        <time>2014-04-22T12:23:15Z</time>
      </trkpt>
      <trkpt lat="47.94163" lon="-3.85899">
        <ele>106.84</ele>
        <time>2014-04-22T12:23:30Z</time>
      </trkpt>
      <trkpt lat="47.9416" lon="-3.85919">
        <ele>107.32</ele>
        <time>2014-04-22T12:23:44Z</time>
      </trkpt>
      <trkpt lat="47.94163" lon="-3.85948">
        <ele>107.81</ele>
        <time>2014-04-22T12:24:04Z</time>
      </trkpt>
      <trkpt lat="47.94171" lon="-3.85979">
        <ele>108.29</ele>
        <time>2014-04-22T12:24:19Z</time>
      </trkpt>
      <trkpt lat="47.9419" lon="-3.85998">
        <ele>107.81</ele>
        <time>2014-04-22T12:24:37Z</time>
      </trkpt>
      <trkpt lat="47.94206" lon="-3.86007">
        <ele>107.81</ele>
        <time>2014-04-22T12:24:54Z</time>
      </trkpt>
      <trkpt lat="47.94227" lon="-3.86018">
        <ele>112.13</ele>
        <time>2014-04-22T12:25:11Z</time>
      </trkpt>
      <trkpt lat="47.94247" lon="-3.86035">
        <ele>116.94</ele>
        <time>2014-04-22T12:25:30Z</time>
      </trkpt>
      <trkpt lat="47.94252" lon="-3.86046">
        <ele>116.94</ele>
        <time>2014-04-22T12:25:38Z</time>
      </trkpt>
      <trkpt lat="47.94249" lon="-3.86076">
        <ele>115.98</ele>
        <time>2014-04-22T12:25:56Z</time>
      </trkpt>
      <trkpt lat="47.94243" lon="-3.86081">
        <ele>114.53</ele>
        <time>2014-04-22T12:26:03Z</time>
      </trkpt>
      <trkpt lat="47.9424" lon="-3.86093">
        <ele>115.01</ele>
        <time>2014-04-22T12:26:09Z</time>
      </trkpt>
      <trkpt lat="47.94229" lon="-3.86123">
        <ele>118.86</ele>
        <time>2014-04-22T12:26:27Z</time>
      </trkpt>
      <trkpt lat="47.94228" lon="-3.86128">
        <ele>118.86</ele>
        <time>2014-04-22T12:26:30Z</time>
      </trkpt>
      <trkpt lat="47.94219" lon="-3.86146">
        <ele>118.86</ele>
        <time>2014-04-22T12:26:46Z</time>
      </trkpt>
      <trkpt lat="47.94202" lon="-3.86145">
        <ele>121.26</ele>
        <time>2014-04-22T12:27:01Z</time>
      </trkpt>
      <trkpt lat="47.94178" lon="-3.86135">
        <ele>121.74</ele>
        <time>2014-04-22T12:27:19Z</time>
      </trkpt>
      <trkpt lat="47.94155" lon="-3.86139">
        <ele>121.74</ele>
        <time>2014-04-22T12:27:36Z</time>
      </trkpt>
      <trkpt lat="47.94157" lon="-3.86166">
        <ele>119.34</ele>
        <time>2014-04-22T12:27:53Z</time>
      </trkpt>
      <trkpt lat="47.9416" lon="-3.86199">
        <ele>115.98</ele>
        <time>2014-04-22T12:28:12Z</time>
      </trkpt>
      <trkpt lat="47.94161" lon="-3.86233">
        <ele>113.57</ele>
        <time>2014-04-22T12:28:32Z</time>
      </trkpt>
      <trkpt lat="47.94161" lon="-3.86265">
        <ele>115.01</ele>
        <time>2014-04-22T12:28:50Z</time>
      </trkpt>
      <trkpt lat="47.94162" lon="-3.86296">
        <ele>115.5</ele>
        <time>2014-04-22T12:29:06Z</time>
      </trkpt>
      <trkpt lat="47.94162" lon="-3.86337">
        <ele>118.38</ele>
        <time>2014-04-22T12:29:25Z</time>
      </trkpt>
      <trkpt lat="47.94165" lon="-3.86355">
        <ele>118.38</ele>
        <time>2014-04-22T12:29:33Z</time>
      </trkpt>
      <trkpt lat="47.94173" lon="-3.86386">
        <ele>117.42</ele>
        <time>2014-04-22T12:29:54Z</time>
      </trkpt>
      <trkpt lat="47.9418" lon="-3.86407">
        <ele>115.98</ele>
        <time>2014-04-22T12:30:09Z</time>
      </trkpt>
      <trkpt lat="47.9418" lon="-3.86449">
        <ele>115.01</ele>
        <time>2014-04-22T12:30:30Z</time>
      </trkpt>
      <trkpt lat="47.9418" lon="-3.86469">
        <ele>116.46</ele>
        <time>2014-04-22T12:30:49Z</time>
      </trkpt>
      <trkpt lat="47.9418" lon="-3.86517">
        <ele>118.38</ele>
        <time>2014-04-22T12:31:09Z</time>
      </trkpt>
      <trkpt lat="47.94181" lon="-3.86557">
        <ele>120.3</ele>
        <time>2014-04-22T12:31:26Z</time>
      </trkpt>
      <trkpt lat="47.94184" lon="-3.86593">
        <ele>118.86</ele>
        <time>2014-04-22T12:31:44Z</time>
      </trkpt>
      <trkpt lat="47.94181" lon="-3.8663">
        <ele>117.42</ele>
        <time>2014-04-22T12:32:00Z</time>
      </trkpt>
      <trkpt lat="47.94184" lon="-3.86658">
        <ele>112.61</ele>
        <time>2014-04-22T12:32:17Z</time>
      </trkpt>
      <trkpt lat="47.94187" lon="-3.86686">
        <ele>110.69</ele>
        <time>2014-04-22T12:32:34Z</time>
      </trkpt>
      <trkpt lat="47.94192" lon="-3.86718">
        <ele>104.44</ele>
        <time>2014-04-22T12:32:53Z</time>
      </trkpt>
      <trkpt lat="47.94184" lon="-3.86741">
        <ele>100.11</ele>
        <time>2014-04-22T12:33:10Z</time>
      </trkpt>
      <trkpt lat="47.94174" lon="-3.86763">
        <ele>100.11</ele>
        <time>2014-04-22T12:33:26Z</time>
      </trkpt>
      <trkpt lat="47.94167" lon="-3.86776">
        <ele>100.11</ele>
        <time>2014-04-22T12:33:41Z</time>
      </trkpt>
      <trkpt lat="47.94157" lon="-3.8681">
        <ele>103.48</ele>
        <time>2014-04-22T12:33:56Z</time>
      </trkpt>
      <trkpt lat="47.94149" lon="-3.86848">
        <ele>107.81</ele>
        <time>2014-04-22T12:34:11Z</time>
      </trkpt>
      <trkpt lat="47.94147" lon="-3.86855">
        <ele>108.77</ele>
        <time>2014-04-22T12:34:26Z</time>
      </trkpt>
      <trkpt lat="47.94147" lon="-3.86862">
        <ele>109.73</ele>
        <time>2014-04-22T12:34:41Z</time>
      </trkpt>
      <trkpt lat="47.94146" lon="-3.86865">
        <ele>110.69</ele>
        <time>2014-04-22T12:34:58Z</time>
      </trkpt>
      <trkpt lat="47.94146" lon="-3.8688">
        <ele>111.17</ele>
        <time>2014-04-22T12:35:13Z</time>
      </trkpt>
      <trkpt lat="47.94146" lon="-3.86886">
        <ele>111.65</ele>
        <time>2014-04-22T12:35:15Z</time>
      </trkpt>
      <trkpt lat="47.94141" lon="-3.86924">
        <ele>112.13</ele>
        <time>2014-04-22T12:35:30Z</time>
      </trkpt>
      <trkpt lat="47.94135" lon="-3.86951">
        <ele>110.21</ele>
        <time>2014-04-22T12:35:44Z</time>
      </trkpt>
      <trkpt lat="47.94133" lon="-3.8698">
        <ele>105.88</ele>
        <time>2014-04-22T12:35:58Z</time>
      </trkpt>
      <trkpt lat="47.94129" lon="-3.87017">
        <ele>109.73</ele>
        <time>2014-04-22T12:36:15Z</time>
      </trkpt>
      <trkpt lat="47.94131" lon="-3.87053">
        <ele>110.21</ele>
        <time>2014-04-22T12:36:35Z</time>
      </trkpt>
      <trkpt lat="47.94129" lon="-3.87085">
        <ele>107.81</ele>
        <time>2014-04-22T12:36:53Z</time>
      </trkpt>
      <trkpt lat="47.94126" lon="-3.87113">
        <ele>108.77</ele>
        <time>2014-04-22T12:37:10Z</time>
      </trkpt>
      <trkpt lat="47.94123" lon="-3.87142">
        <ele>106.36</ele>
        <time>2014-04-22T12:37:25Z</time>
      </trkpt>
      <trkpt lat="47.94121" lon="-3.87159">
        <ele>106.36</ele>
        <time>2014-04-22T12:37:32Z</time>
      </trkpt>
      <trkpt lat="47.94124" lon="-3.87189">
        <ele>104.92</ele>
        <time>2014-04-22T12:37:48Z</time>
      </trkpt>
      <trkpt lat="47.94129" lon="-3.87196">
        <ele>104.44</ele>
        <time>2014-04-22T12:37:52Z</time>
      </trkpt>
      <trkpt lat="47.94145" lon="-3.87218">
        <ele>103.96</ele>
        <time>2014-04-22T12:38:06Z</time>
      </trkpt>
      <trkpt lat="47.94162" lon="-3.87229">
        <ele>103</ele>
        <time>2014-04-22T12:38:21Z</time>
      </trkpt>
      <trkpt lat="47.9418" lon="-3.87238">
        <ele>104.92</ele>
        <time>2014-04-22T12:38:34Z</time>
      </trkpt>
      <trkpt lat="47.94204" lon="-3.87251">
        <ele>108.77</ele>
        <time>2014-04-22T12:38:53Z</time>
      </trkpt>
      <trkpt lat="47.94218" lon="-3.87265">
        <ele>107.32</ele>
        <time>2014-04-22T12:39:07Z</time>
      </trkpt>
      <trkpt lat="47.94231" lon="-3.87273">
        <ele>107.32</ele>
        <time>2014-04-22T12:39:18Z</time>
      </trkpt>
      <trkpt lat="47.94233" lon="-3.87273">
        <ele>106.84</ele>
        <time>2014-04-22T12:39:21Z</time>
      </trkpt>
      <trkpt lat="47.9425" lon="-3.87277">
        <ele>107.81</ele>
        <time>2014-04-22T12:39:37Z</time>
      </trkpt>
      <trkpt lat="47.9427" lon="-3.87287">
        <ele>110.69</ele>
        <time>2014-04-22T12:39:55Z</time>
      </trkpt>
      <trkpt lat="47.94285" lon="-3.87294">
        <ele>113.09</ele>
        <time>2014-04-22T12:40:08Z</time>
      </trkpt>
      <trkpt lat="47.94308" lon="-3.87303">
        <ele>115.01</ele>
        <time>2014-04-22T12:40:27Z</time>
      </trkpt>
      <trkpt lat="47.94327" lon="-3.8731">
        <ele>116.94</ele>
        <time>2014-04-22T12:40:44Z</time>
      </trkpt>
      <trkpt lat="47.94346" lon="-3.87316">
        <ele>117.9</ele>
        <time>2014-04-22T12:40:59Z</time>
      </trkpt>
      <trkpt lat="47.94365" lon="-3.87322">
        <ele>117.42</ele>
        <time>2014-04-22T12:41:16Z</time>
      </trkpt>
      <trkpt lat="47.94382" lon="-3.8733">
        <ele>118.38</ele>
        <time>2014-04-22T12:41:30Z</time>
      </trkpt>
      <trkpt lat="47.94383" lon="-3.87331">
        <ele>117.9</ele>
        <time>2014-04-22T12:41:31Z</time>
      </trkpt>
      <trkpt lat="47.94395" lon="-3.8735">
        <ele>115.5</ele>
        <time>2014-04-22T12:41:46Z</time>
      </trkpt>
      <trkpt lat="47.94399" lon="-3.87373">
        <ele>114.53</ele>
        <time>2014-04-22T12:42:00Z</time>
      </trkpt>
      <trkpt lat="47.94401" lon="-3.87396">
        <ele>114.05</ele>
        <time>2014-04-22T12:42:13Z</time>
      </trkpt>
      <trkpt lat="47.94405" lon="-3.87429">
        <ele>118.86</ele>
        <time>2014-04-22T12:42:30Z</time>
      </trkpt>
      <trkpt lat="47.94408" lon="-3.87461">
        <ele>118.38</ele>
        <time>2014-04-22T12:42:47Z</time>
      </trkpt>
      <trkpt lat="47.94412" lon="-3.87494">
        <ele>117.42</ele>
        <time>2014-04-22T12:43:06Z</time>
      </trkpt>
      <trkpt lat="47.94416" lon="-3.87527">
        <ele>115.98</ele>
        <time>2014-04-22T12:43:24Z</time>
      </trkpt>
      <trkpt lat="47.94418" lon="-3.87562">
        <ele>115.5</ele>
        <time>2014-04-22T12:43:43Z</time>
      </trkpt>
      <trkpt lat="47.94416" lon="-3.87572">
        <ele>119.34</ele>
        <time>2014-04-22T12:43:54Z</time>
      </trkpt>
      <trkpt lat="47.94415" lon="-3.87576">
        <ele>120.78</ele>
        <time>2014-04-22T12:43:57Z</time>
      </trkpt>
      <trkpt lat="47.94405" lon="-3.87603">
        <ele>120.3</ele>
        <time>2014-04-22T12:44:14Z</time>
      </trkpt>
      <trkpt lat="47.94403" lon="-3.87605">
        <ele>120.3</ele>
        <time>2014-04-22T12:44:15Z</time>
      </trkpt>
      <trkpt lat="47.94394" lon="-3.87634">
        <ele>120.3</ele>
        <time>2014-04-22T12:44:33Z</time>
      </trkpt>
      <trkpt lat="47.94384" lon="-3.87662">
        <ele>121.26</ele>
        <time>2014-04-22T12:44:50Z</time>
      </trkpt>
      <trkpt lat="47.94381" lon="-3.87679">
        <ele>121.26</ele>
        <time>2014-04-22T12:45:03Z</time>
      </trkpt>
      <trkpt lat="47.94375" lon="-3.87709">
        <ele>119.82</ele>
        <time>2014-04-22T12:45:19Z</time>
      </trkpt>
      <trkpt lat="47.94367" lon="-3.87749">
        <ele>122.22</ele>
        <time>2014-04-22T12:45:39Z</time>
      </trkpt>
      <trkpt lat="47.94366" lon="-3.87785">
        <ele>123.19</ele>
        <time>2014-04-22T12:45:58Z</time>
      </trkpt>
      <trkpt lat="47.94369" lon="-3.87817">
        <ele>122.22</ele>
        <time>2014-04-22T12:46:16Z</time>
      </trkpt>
      <trkpt lat="47.94372" lon="-3.87846">
        <ele>121.26</ele>
        <time>2014-04-22T12:46:32Z</time>
      </trkpt>
      <trkpt lat="47.94378" lon="-3.87865">
        <ele>122.71</ele>
        <time>2014-04-22T12:46:46Z</time>
      </trkpt>
      <trkpt lat="47.94386" lon="-3.87876">
        <ele>120.78</ele>
        <time>2014-04-22T12:47:05Z</time>
      </trkpt>
      <trkpt lat="47.94398" lon="-3.87889">
        <ele>116.46</ele>
        <time>2014-04-22T12:47:22Z</time>
      </trkpt>
      <trkpt lat="47.94413" lon="-3.87899">
        <ele>113.09</ele>
        <time>2014-04-22T12:47:36Z</time>
      </trkpt>
      <trkpt lat="47.94421" lon="-3.87907">
        <ele>112.13</ele>
        <time>2014-04-22T12:47:44Z</time>
      </trkpt>
      <trkpt lat="47.94442" lon="-3.8793">
        <ele>111.65</ele>
        <time>2014-04-22T12:48:01Z</time>
      </trkpt>
      <trkpt lat="47.94452" lon="-3.87942">
        <ele>114.05</ele>
        <time>2014-04-22T12:48:11Z</time>
      </trkpt>
      <trkpt lat="47.94469" lon="-3.87957">
        <ele>112.13</ele>
        <time>2014-04-22T12:48:27Z</time>
      </trkpt>
      <trkpt lat="47.94475" lon="-3.8796">
        <ele>111.65</ele>
        <time>2014-04-22T12:48:34Z</time>
      </trkpt>
      <trkpt lat="47.94497" lon="-3.8797">
        <ele>114.05</ele>
        <time>2014-04-22T12:48:51Z</time>
      </trkpt>
      <trkpt lat="47.94509" lon="-3.87979">
        <ele>111.65</ele>
        <time>2014-04-22T12:49:05Z</time>
      </trkpt>
      <trkpt lat="47.94524" lon="-3.8798">
        <ele>109.25</ele>
        <time>2014-04-22T12:49:19Z</time>
      </trkpt>
      <trkpt lat="47.94546" lon="-3.87985">
        <ele>110.69</ele>
        <time>2014-04-22T12:49:34Z</time>
      </trkpt>
      <trkpt lat="47.94565" lon="-3.87988">
        <ele>110.69</ele>
        <time>2014-04-22T12:49:50Z</time>
      </trkpt>
      <trkpt lat="47.94583" lon="-3.87982">
        <ele>111.17</ele>
        <time>2014-04-22T12:50:03Z</time>
      </trkpt>
      <trkpt lat="47.94597" lon="-3.87977">
        <ele>109.73</ele>
        <time>2014-04-22T12:50:19Z</time>
      </trkpt>
      <trkpt lat="47.94616" lon="-3.87972">
        <ele>108.29</ele>
        <time>2014-04-22T12:50:35Z</time>
      </trkpt>
      <trkpt lat="47.94638" lon="-3.87962">
        <ele>110.69</ele>
        <time>2014-04-22T12:50:54Z</time>
      </trkpt>
      <trkpt lat="47.94657" lon="-3.87953">
        <ele>114.05</ele>
        <time>2014-04-22T12:51:10Z</time>
      </trkpt>
      <trkpt lat="47.94679" lon="-3.87943">
        <ele>116.46</ele>
        <time>2014-04-22T12:51:29Z</time>
      </trkpt>
      <trkpt lat="47.947" lon="-3.87924">
        <ele>120.3</ele>
        <time>2014-04-22T12:51:47Z</time>
      </trkpt>
      <trkpt lat="47.94717" lon="-3.87908">
        <ele>125.59</ele>
        <time>2014-04-22T12:52:00Z</time>
      </trkpt>
      <trkpt lat="47.94723" lon="-3.87903">
        <ele>127.51</ele>
        <time>2014-04-22T12:52:05Z</time>
      </trkpt>
      <trkpt lat="47.94749" lon="-3.87886">
        <ele>129.43</ele>
        <time>2014-04-22T12:52:26Z</time>
      </trkpt>
      <trkpt lat="47.94769" lon="-3.87874">
        <ele>128.47</ele>
        <time>2014-04-22T12:52:43Z</time>
      </trkpt>
      <trkpt lat="47.94788" lon="-3.87867">
        <ele>129.92</ele>
        <time>2014-04-22T12:53:01Z</time>
      </trkpt>
      <trkpt lat="47.94805" lon="-3.87864">
        <ele>131.36</ele>
        <time>2014-04-22T12:53:18Z</time>
      </trkpt>
      <trkpt lat="47.94818" lon="-3.87856">
        <ele>130.88</ele>
        <time>2014-04-22T12:53:34Z</time>
      </trkpt>
      <trkpt lat="47.94835" lon="-3.87837">
        <ele>130.4</ele>
        <time>2014-04-22T12:53:49Z</time>
      </trkpt>
      <trkpt lat="47.94848" lon="-3.87819">
        <ele>127.03</ele>
        <time>2014-04-22T12:54:03Z</time>
      </trkpt>
      <trkpt lat="47.94862" lon="-3.87794">
        <ele>125.11</ele>
        <time>2014-04-22T12:54:20Z</time>
      </trkpt>
      <trkpt lat="47.9487" lon="-3.87772">
        <ele>123.19</ele>
        <time>2014-04-22T12:54:35Z</time>
      </trkpt>
      <trkpt lat="47.94881" lon="-3.87751">
        <ele>119.82</ele>
        <time>2014-04-22T12:54:51Z</time>
      </trkpt>
      <trkpt lat="47.94891" lon="-3.8773">
        <ele>115.98</ele>
        <time>2014-04-22T12:55:06Z</time>
      </trkpt>
      <trkpt lat="47.949" lon="-3.87715">
        <ele>114.05</ele>
        <time>2014-04-22T12:55:17Z</time>
      </trkpt>
      <trkpt lat="47.94916" lon="-3.87689">
        <ele>113.09</ele>
        <time>2014-04-22T12:55:36Z</time>
      </trkpt>
      <trkpt lat="47.94928" lon="-3.87667">
        <ele>113.09</ele>
        <time>2014-04-22T12:55:53Z</time>
      </trkpt>
      <trkpt lat="47.94945" lon="-3.87642">
        <ele>115.01</ele>
        <time>2014-04-22T12:56:10Z</time>
      </trkpt>
      <trkpt lat="47.9496" lon="-3.87621">
        <ele>116.94</ele>
        <time>2014-04-22T12:56:26Z</time>
      </trkpt>
      <trkpt lat="47.94974" lon="-3.87594">
        <ele>119.34</ele>
        <time>2014-04-22T12:56:42Z</time>
      </trkpt>
      <trkpt lat="47.94979" lon="-3.87588">
        <ele>120.78</ele>
        <time>2014-04-22T12:56:47Z</time>
      </trkpt>
      <trkpt lat="47.94988" lon="-3.87569">
        <ele>122.71</ele>
        <time>2014-04-22T12:56:59Z</time>
      </trkpt>
      <trkpt lat="47.95003" lon="-3.87551">
        <ele>122.71</ele>
        <time>2014-04-22T12:57:16Z</time>
      </trkpt>
      <trkpt lat="47.95015" lon="-3.87524">
        <ele>119.82</ele>
        <time>2014-04-22T12:57:34Z</time>
      </trkpt>
      <trkpt lat="47.95029" lon="-3.87504">
        <ele>117.42</ele>
        <time>2014-04-22T12:57:50Z</time>
      </trkpt>
      <trkpt lat="47.95038" lon="-3.87503">
        <ele>117.42</ele>
        <time>2014-04-22T12:57:59Z</time>
      </trkpt>
      <trkpt lat="47.9505" lon="-3.87503">
        <ele>116.46</ele>
        <time>2014-04-22T12:58:14Z</time>
      </trkpt>
      <trkpt lat="47.95067" lon="-3.875">
        <ele>118.86</ele>
        <time>2014-04-22T12:58:28Z</time>
      </trkpt>
      <trkpt lat="47.95083" lon="-3.87497">
        <ele>123.67</ele>
        <time>2014-04-22T12:58:43Z</time>
      </trkpt>
      <trkpt lat="47.951" lon="-3.87497">
        <ele>127.99</ele>
        <time>2014-04-22T12:58:59Z</time>
      </trkpt>
      <trkpt lat="47.95117" lon="-3.87499">
        <ele>130.4</ele>
        <time>2014-04-22T12:59:14Z</time>
      </trkpt>
      <trkpt lat="47.95133" lon="-3.87495">
        <ele>131.84</ele>
        <time>2014-04-22T12:59:28Z</time>
      </trkpt>
      <trkpt lat="47.95159" lon="-3.8749">
        <ele>134.72</ele>
        <time>2014-04-22T12:59:47Z</time>
      </trkpt>
      <trkpt lat="47.95181" lon="-3.87487">
        <ele>142.41</ele>
        <time>2014-04-22T13:00:02Z</time>
      </trkpt>
      <trkpt lat="47.95197" lon="-3.87482">
        <ele>145.78</ele>
        <time>2014-04-22T13:00:16Z</time>
      </trkpt>
      <trkpt lat="47.95216" lon="-3.87475">
        <ele>148.18</ele>
        <time>2014-04-22T13:00:35Z</time>
      </trkpt>
      <trkpt lat="47.95227" lon="-3.87473">
        <ele>148.18</ele>
        <time>2014-04-22T13:00:47Z</time>
      </trkpt>
      <trkpt lat="47.95246" lon="-3.87465">
        <ele>146.74</ele>
        <time>2014-04-22T13:01:04Z</time>
      </trkpt>
      <trkpt lat="47.9526" lon="-3.87461">
        <ele>142.89</ele>
        <time>2014-04-22T13:01:20Z</time>
      </trkpt>
      <trkpt lat="47.95284" lon="-3.87455">
        <ele>139.53</ele>
        <time>2014-04-22T13:01:39Z</time>
      </trkpt>
      <trkpt lat="47.953" lon="-3.87451">
        <ele>140.97</ele>
        <time>2014-04-22T13:01:54Z</time>
      </trkpt>
      <trkpt lat="47.95319" lon="-3.87444">
        <ele>143.37</ele>
        <time>2014-04-22T13:02:07Z</time>
      </trkpt>
      <trkpt lat="47.95338" lon="-3.87438">
        <ele>145.3</ele>
        <time>2014-04-22T13:02:24Z</time>
      </trkpt>
      <trkpt lat="47.9536" lon="-3.87432">
        <ele>147.7</ele>
        <time>2014-04-22T13:02:40Z</time>
      </trkpt>
      <trkpt lat="47.95389" lon="-3.87423">
        <ele>151.06</ele>
        <time>2014-04-22T13:02:59Z</time>
      </trkpt>
      <trkpt lat="47.95407" lon="-3.8742">
        <ele>150.1</ele>
        <time>2014-04-22T13:03:15Z</time>
      </trkpt>
      <trkpt lat="47.95425" lon="-3.87416">
        <ele>147.7</ele>
        <time>2014-04-22T13:03:31Z</time>
      </trkpt>
      <trkpt lat="47.95449" lon="-3.87406">
        <ele>150.1</ele>
        <time>2014-04-22T13:03:48Z</time>
      </trkpt>
      <trkpt lat="47.95469" lon="-3.87396">
        <ele>150.1</ele>
        <time>2014-04-22T13:04:04Z</time>
      </trkpt>
      <trkpt lat="47.95486" lon="-3.87387">
        <ele>147.22</ele>
        <time>2014-04-22T13:04:22Z</time>
      </trkpt>
      <trkpt lat="47.95488" lon="-3.87385">
        <ele>147.22</ele>
        <time>2014-04-22T13:04:25Z</time>
      </trkpt>
      <trkpt lat="47.95512" lon="-3.87368">
        <ele>142.89</ele>
        <time>2014-04-22T13:04:43Z</time>
      </trkpt>
      <trkpt lat="47.9553" lon="-3.87355">
        <ele>141.93</ele>
        <time>2014-04-22T13:04:59Z</time>
      </trkpt>
      <trkpt lat="47.95556" lon="-3.87337">
        <ele>143.85</ele>
        <time>2014-04-22T13:05:16Z</time>
      </trkpt>
      <trkpt lat="47.95574" lon="-3.87325">
        <ele>145.78</ele>
        <time>2014-04-22T13:05:34Z</time>
      </trkpt>
      <trkpt lat="47.9559" lon="-3.87315">
        <ele>145.78</ele>
        <time>2014-04-22T13:05:51Z</time>
      </trkpt>
      <trkpt lat="47.95596" lon="-3.87306">
        <ele>144.82</ele>
        <time>2014-04-22T13:05:58Z</time>
      </trkpt>
      <trkpt lat="47.95597" lon="-3.87302">
        <ele>144.82</ele>
        <time>2014-04-22T13:06:00Z</time>
      </trkpt>
      <trkpt lat="47.95613" lon="-3.87287">
        <ele>143.37</ele>
        <time>2014-04-22T13:06:16Z</time>
      </trkpt>
      <trkpt lat="47.95616" lon="-3.87282">
        <ele>142.41</ele>
        <time>2014-04-22T13:06:21Z</time>
      </trkpt>
      <trkpt lat="47.95632" lon="-3.87259">
        <ele>140.01</ele>
        <time>2014-04-22T13:06:39Z</time>
      </trkpt>
      <trkpt lat="47.95642" lon="-3.87246">
        <ele>139.05</ele>
        <time>2014-04-22T13:06:51Z</time>
      </trkpt>
      <trkpt lat="47.95656" lon="-3.87227">
        <ele>138.09</ele>
        <time>2014-04-22T13:07:06Z</time>
      </trkpt>
      <trkpt lat="47.9567" lon="-3.87199">
        <ele>139.05</ele>
        <time>2014-04-22T13:07:23Z</time>
      </trkpt>
      <trkpt lat="47.95686" lon="-3.87172">
        <ele>138.09</ele>
        <time>2014-04-22T13:07:40Z</time>
      </trkpt>
      <trkpt lat="47.95689" lon="-3.87164">
        <ele>137.61</ele>
        <time>2014-04-22T13:07:45Z</time>
      </trkpt>
      <trkpt lat="47.95699" lon="-3.87147">
        <ele>135.68</ele>
        <time>2014-04-22T13:07:58Z</time>
      </trkpt>
      <trkpt lat="47.95712" lon="-3.87119">
        <ele>132.8</ele>
        <time>2014-04-22T13:08:15Z</time>
      </trkpt>
      <trkpt lat="47.95721" lon="-3.87094">
        <ele>129.92</ele>
        <time>2014-04-22T13:08:33Z</time>
      </trkpt>
      <trkpt lat="47.95734" lon="-3.87069">
        <ele>126.55</ele>
        <time>2014-04-22T13:08:50Z</time>
      </trkpt>
      <trkpt lat="47.95744" lon="-3.87029">
        <ele>124.63</ele>
        <time>2014-04-22T13:09:08Z</time>
      </trkpt>
      <trkpt lat="47.95751" lon="-3.87009">
        <ele>126.07</ele>
        <time>2014-04-22T13:09:18Z</time>
      </trkpt>
      <trkpt lat="47.9576" lon="-3.86981">
        <ele>125.59</ele>
        <time>2014-04-22T13:09:33Z</time>
      </trkpt>
      <trkpt lat="47.9577" lon="-3.86956">
        <ele>126.55</ele>
        <time>2014-04-22T13:09:48Z</time>
      </trkpt>
      <trkpt lat="47.95776" lon="-3.86938">
        <ele>124.63</ele>
        <time>2014-04-22T13:10:05Z</time>
      </trkpt>
      <trkpt lat="47.9578" lon="-3.8693">
        <ele>122.22</ele>
        <time>2014-04-22T13:10:21Z</time>
      </trkpt>
      <trkpt lat="47.95788" lon="-3.86913">
        <ele>119.34</ele>
        <time>2014-04-22T13:10:36Z</time>
      </trkpt>
      <trkpt lat="47.95785" lon="-3.86918">
        <ele>123.67</ele>
        <time>2014-04-22T13:10:50Z</time>
      </trkpt>
      <trkpt lat="47.95775" lon="-3.86923">
        <ele>126.07</ele>
        <time>2014-04-22T13:11:09Z</time>
      </trkpt>
      <trkpt lat="47.95775" lon="-3.86921">
        <ele>126.07</ele>
        <time>2014-04-22T13:11:11Z</time>
      </trkpt>
      <trkpt lat="47.95766" lon="-3.86913">
        <ele>127.03</ele>
        <time>2014-04-22T13:11:20Z</time>
      </trkpt>
      <trkpt lat="47.95751" lon="-3.86914">
        <ele>127.03</ele>
        <time>2014-04-22T13:11:24Z</time>
      </trkpt>
      <trkpt lat="47.95736" lon="-3.86907">
        <ele>129.92</ele>
        <time>2014-04-22T13:11:36Z</time>
      </trkpt>
      <trkpt lat="47.95718" lon="-3.86901">
        <ele>134.24</ele>
        <time>2014-04-22T13:11:51Z</time>
      </trkpt>
      <trkpt lat="47.95699" lon="-3.86899">
        <ele>137.61</ele>
        <time>2014-04-22T13:12:07Z</time>
      </trkpt>
      <trkpt lat="47.95689" lon="-3.869">
        <ele>139.53</ele>
        <time>2014-04-22T13:12:21Z</time>
      </trkpt>
      <trkpt lat="47.95672" lon="-3.86896">
        <ele>141.93</ele>
        <time>2014-04-22T13:12:33Z</time>
      </trkpt>
      <trkpt lat="47.95655" lon="-3.86889">
        <ele>141.93</ele>
        <time>2014-04-22T13:12:45Z</time>
      </trkpt>
      <trkpt lat="47.95652" lon="-3.86884">
        <ele>141.45</ele>
        <time>2014-04-22T13:12:49Z</time>
      </trkpt>
      <trkpt lat="47.95651" lon="-3.86863">
        <ele>142.89</ele>
        <time>2014-04-22T13:13:05Z</time>
      </trkpt>
      <trkpt lat="47.95666" lon="-3.86841">
        <ele>144.34</ele>
        <time>2014-04-22T13:13:22Z</time>
      </trkpt>
      <trkpt lat="47.95682" lon="-3.86817">
        <ele>144.82</ele>
        <time>2014-04-22T13:13:40Z</time>
      </trkpt>
      <trkpt lat="47.95688" lon="-3.86807">
        <ele>144.34</ele>
        <time>2014-04-22T13:13:47Z</time>
      </trkpt>
      <trkpt lat="47.95691" lon="-3.868">
        <ele>142.89</ele>
        <time>2014-04-22T13:13:52Z</time>
      </trkpt>
      <trkpt lat="47.95703" lon="-3.8678">
        <ele>141.45</ele>
        <time>2014-04-22T13:14:07Z</time>
      </trkpt>
      <trkpt lat="47.95716" lon="-3.86754">
        <ele>140.01</ele>
        <time>2014-04-22T13:14:24Z</time>
      </trkpt>
      <trkpt lat="47.95728" lon="-3.86727">
        <ele>140.97</ele>
        <time>2014-04-22T13:14:41Z</time>
      </trkpt>
      <trkpt lat="47.95739" lon="-3.86698">
        <ele>142.41</ele>
        <time>2014-04-22T13:14:58Z</time>
      </trkpt>
      <trkpt lat="47.9575" lon="-3.8666">
        <ele>141.45</ele>
        <time>2014-04-22T13:15:19Z</time>
      </trkpt>
      <trkpt lat="47.9575" lon="-3.86653">
        <ele>140.49</ele>
        <time>2014-04-22T13:15:23Z</time>
      </trkpt>
      <trkpt lat="47.95753" lon="-3.8664">
        <ele>139.53</ele>
        <time>2014-04-22T13:15:31Z</time>
      </trkpt>
      <trkpt lat="47.95754" lon="-3.86612">
        <ele>137.13</ele>
        <time>2014-04-22T13:15:47Z</time>
      </trkpt>
      <trkpt lat="47.95754" lon="-3.86588">
        <ele>133.76</ele>
        <time>2014-04-22T13:16:01Z</time>
      </trkpt>
      <trkpt lat="47.95754" lon="-3.86575">
        <ele>131.36</ele>
        <time>2014-04-22T13:16:08Z</time>
      </trkpt>
      <trkpt lat="47.95753" lon="-3.8657">
        <ele>130.4</ele>
        <time>2014-04-22T13:16:11Z</time>
      </trkpt>
      <trkpt lat="47.95752" lon="-3.8655">
        <ele>128.95</ele>
        <time>2014-04-22T13:16:21Z</time>
      </trkpt>
      <trkpt lat="47.9575" lon="-3.8652">
        <ele>126.07</ele>
        <time>2014-04-22T13:16:39Z</time>
      </trkpt>
      <trkpt lat="47.95749" lon="-3.86512">
        <ele>124.15</ele>
        <time>2014-04-22T13:16:43Z</time>
      </trkpt>
      <trkpt lat="47.95747" lon="-3.86505">
        <ele>123.19</ele>
        <time>2014-04-22T13:16:47Z</time>
      </trkpt>
      <trkpt lat="47.95746" lon="-3.86491">
        <ele>122.71</ele>
        <time>2014-04-22T13:16:54Z</time>
      </trkpt>
      <trkpt lat="47.95743" lon="-3.86453">
        <ele>123.67</ele>
        <time>2014-04-22T13:17:12Z</time>
      </trkpt>
      <trkpt lat="47.95743" lon="-3.86428">
        <ele>125.11</ele>
        <time>2014-04-22T13:17:25Z</time>
      </trkpt>
      <trkpt lat="47.95741" lon="-3.86418">
        <ele>124.63</ele>
        <time>2014-04-22T13:17:31Z</time>
      </trkpt>
      <trkpt lat="47.95737" lon="-3.86386">
        <ele>124.15</ele>
        <time>2014-04-22T13:17:47Z</time>
      </trkpt>
      <trkpt lat="47.95736" lon="-3.86373">
        <ele>127.99</ele>
        <time>2014-04-22T13:17:53Z</time>
      </trkpt>
      <trkpt lat="47.95735" lon="-3.86362">
        <ele>128.95</ele>
        <time>2014-04-22T13:17:59Z</time>
      </trkpt>
      <trkpt lat="47.95732" lon="-3.8633">
        <ele>131.84</ele>
        <time>2014-04-22T13:18:15Z</time>
      </trkpt>
      <trkpt lat="47.95731" lon="-3.86324">
        <ele>132.32</ele>
        <time>2014-04-22T13:18:18Z</time>
      </trkpt>
      <trkpt lat="47.95729" lon="-3.86316">
        <ele>132.32</ele>
        <time>2014-04-22T13:18:22Z</time>
      </trkpt>
      <trkpt lat="47.95725" lon="-3.8629">
        <ele>132.8</ele>
        <time>2014-04-22T13:18:36Z</time>
      </trkpt>
      <trkpt lat="47.95723" lon="-3.86267">
        <ele>127.03</ele>
        <time>2014-04-22T13:18:48Z</time>
      </trkpt>
      <trkpt lat="47.95719" lon="-3.86238">
        <ele>127.99</ele>
        <time>2014-04-22T13:19:04Z</time>
      </trkpt>
      <trkpt lat="47.95711" lon="-3.86208">
        <ele>130.4</ele>
        <time>2014-04-22T13:19:21Z</time>
      </trkpt>
      <trkpt lat="47.95712" lon="-3.86182">
        <ele>131.84</ele>
        <time>2014-04-22T13:19:36Z</time>
      </trkpt>
      <trkpt lat="47.9571" lon="-3.86155">
        <ele>134.24</ele>
        <time>2014-04-22T13:19:51Z</time>
      </trkpt>
      <trkpt lat="47.9571" lon="-3.86125">
        <ele>137.61</ele>
        <time>2014-04-22T13:20:06Z</time>
      </trkpt>
      <trkpt lat="47.9571" lon="-3.8609">
        <ele>140.01</ele>
        <time>2014-04-22T13:20:24Z</time>
      </trkpt>
      <trkpt lat="47.95709" lon="-3.86057">
        <ele>142.41</ele>
        <time>2014-04-22T13:20:41Z</time>
      </trkpt>
      <trkpt lat="47.95709" lon="-3.86031">
        <ele>144.82</ele>
        <time>2014-04-22T13:20:56Z</time>
      </trkpt>
      <trkpt lat="47.95708" lon="-3.85997">
        <ele>146.74</ele>
        <time>2014-04-22T13:21:15Z</time>
      </trkpt>
      <trkpt lat="47.95707" lon="-3.85985">
        <ele>145.78</ele>
        <time>2014-04-22T13:21:21Z</time>
      </trkpt>
      <trkpt lat="47.95706" lon="-3.85951">
        <ele>147.22</ele>
        <time>2014-04-22T13:21:39Z</time>
      </trkpt>
      <trkpt lat="47.95706" lon="-3.85921">
        <ele>150.58</ele>
        <time>2014-04-22T13:21:54Z</time>
      </trkpt>
      <trkpt lat="47.95707" lon="-3.85889">
        <ele>151.06</ele>
        <time>2014-04-22T13:22:11Z</time>
      </trkpt>
      <trkpt lat="47.95709" lon="-3.85862">
        <ele>150.58</ele>
        <time>2014-04-22T13:22:28Z</time>
      </trkpt>
      <trkpt lat="47.95711" lon="-3.85842">
        <ele>150.1</ele>
        <time>2014-04-22T13:22:41Z</time>
      </trkpt>
      <trkpt lat="47.95714" lon="-3.85815">
        <ele>148.66</ele>
        <time>2014-04-22T13:22:57Z</time>
      </trkpt>
      <trkpt lat="47.95714" lon="-3.85788">
        <ele>147.22</ele>
        <time>2014-04-22T13:23:13Z</time>
      </trkpt>
      <trkpt lat="47.95716" lon="-3.85769">
        <ele>144.34</ele>
        <time>2014-04-22T13:23:27Z</time>
      </trkpt>
      <trkpt lat="47.95717" lon="-3.85737">
        <ele>138.57</ele>
        <time>2014-04-22T13:23:44Z</time>
      </trkpt>
      <trkpt lat="47.9572" lon="-3.85701">
        <ele>135.2</ele>
        <time>2014-04-22T13:24:00Z</time>
      </trkpt>
      <trkpt lat="47.95723" lon="-3.85672">
        <ele>132.8</ele>
        <time>2014-04-22T13:24:15Z</time>
      </trkpt>
      <trkpt lat="47.95726" lon="-3.8564">
        <ele>130.88</ele>
        <time>2014-04-22T13:24:33Z</time>
      </trkpt>
      <trkpt lat="47.95728" lon="-3.85609">
        <ele>132.32</ele>
        <time>2014-04-22T13:24:48Z</time>
      </trkpt>
      <trkpt lat="47.95729" lon="-3.85583">
        <ele>134.24</ele>
        <time>2014-04-22T13:25:01Z</time>
      </trkpt>
      <trkpt lat="47.95729" lon="-3.8555">
        <ele>134.24</ele>
        <time>2014-04-22T13:25:18Z</time>
      </trkpt>
      <trkpt lat="47.95729" lon="-3.85544">
        <ele>133.76</ele>
        <time>2014-04-22T13:25:21Z</time>
      </trkpt>
      <trkpt lat="47.95728" lon="-3.85539">
        <ele>134.24</ele>
        <time>2014-04-22T13:25:24Z</time>
      </trkpt>
      <trkpt lat="47.95729" lon="-3.85527">
        <ele>134.24</ele>
        <time>2014-04-22T13:25:30Z</time>
      </trkpt>
      <trkpt lat="47.95731" lon="-3.85519">
        <ele>134.24</ele>
        <time>2014-04-22T13:25:34Z</time>
      </trkpt>
      <trkpt lat="47.95729" lon="-3.85482">
        <ele>134.24</ele>
        <time>2014-04-22T13:25:53Z</time>
      </trkpt>
      <trkpt lat="47.95728" lon="-3.85453">
        <ele>133.76</ele>
        <time>2014-04-22T13:26:08Z</time>
      </trkpt>
      <trkpt lat="47.95727" lon="-3.85414">
        <ele>133.28</ele>
        <time>2014-04-22T13:26:28Z</time>
      </trkpt>
      <trkpt lat="47.95728" lon="-3.85381">
        <ele>132.32</ele>
        <time>2014-04-22T13:26:45Z</time>
      </trkpt>
      <trkpt lat="47.95729" lon="-3.85352">
        <ele>130.88</ele>
        <time>2014-04-22T13:27:01Z</time>
      </trkpt>
      <trkpt lat="47.95726" lon="-3.8532">
        <ele>130.88</ele>
        <time>2014-04-22T13:27:18Z</time>
      </trkpt>
      <trkpt lat="47.95726" lon="-3.85287">
        <ele>131.36</ele>
        <time>2014-04-22T13:27:35Z</time>
      </trkpt>
      <trkpt lat="47.95725" lon="-3.85252">
        <ele>131.84</ele>
        <time>2014-04-22T13:27:53Z</time>
      </trkpt>
      <trkpt lat="47.95727" lon="-3.85219">
        <ele>132.32</ele>
        <time>2014-04-22T13:28:10Z</time>
      </trkpt>
      <trkpt lat="47.95731" lon="-3.8518">
        <ele>129.92</ele>
        <time>2014-04-22T13:28:31Z</time>
      </trkpt>
      <trkpt lat="47.95734" lon="-3.85149">
        <ele>127.03</ele>
        <time>2014-04-22T13:28:49Z</time>
      </trkpt>
      <trkpt lat="47.95738" lon="-3.8512">
        <ele>128.47</ele>
        <time>2014-04-22T13:29:06Z</time>
      </trkpt>
      <trkpt lat="47.95742" lon="-3.85089">
        <ele>130.88</ele>
        <time>2014-04-22T13:29:24Z</time>
      </trkpt>
      <trkpt lat="47.95748" lon="-3.85056">
        <ele>134.24</ele>
        <time>2014-04-22T13:29:43Z</time>
      </trkpt>
      <trkpt lat="47.95753" lon="-3.85025">
        <ele>135.2</ele>
        <time>2014-04-22T13:30:00Z</time>
      </trkpt>
      <trkpt lat="47.95758" lon="-3.84992">
        <ele>136.64</ele>
        <time>2014-04-22T13:30:17Z</time>
      </trkpt>
      <trkpt lat="47.95759" lon="-3.84975">
        <ele>138.09</ele>
        <time>2014-04-22T13:30:25Z</time>
      </trkpt>
      <trkpt lat="47.95764" lon="-3.8494">
        <ele>140.49</ele>
        <time>2014-04-22T13:30:43Z</time>
      </trkpt>
      <trkpt lat="47.95769" lon="-3.84911">
        <ele>140.97</ele>
        <time>2014-04-22T13:30:59Z</time>
      </trkpt>
      <trkpt lat="47.95774" lon="-3.84881">
        <ele>141.45</ele>
        <time>2014-04-22T13:31:15Z</time>
      </trkpt>
      <trkpt lat="47.95778" lon="-3.84847">
        <ele>141.45</ele>
        <time>2014-04-22T13:31:32Z</time>
      </trkpt>
      <trkpt lat="47.95783" lon="-3.84816">
        <ele>143.37</ele>
        <time>2014-04-22T13:31:49Z</time>
      </trkpt>
      <trkpt lat="47.95789" lon="-3.84788">
        <ele>143.37</ele>
        <time>2014-04-22T13:32:05Z</time>
      </trkpt>
      <trkpt lat="47.95793" lon="-3.84753">
        <ele>143.85</ele>
        <time>2014-04-22T13:32:23Z</time>
      </trkpt>
      <trkpt lat="47.95797" lon="-3.84724">
        <ele>146.26</ele>
        <time>2014-04-22T13:32:40Z</time>
      </trkpt>
      <trkpt lat="47.95804" lon="-3.84692">
        <ele>147.22</ele>
        <time>2014-04-22T13:32:59Z</time>
      </trkpt>
      <trkpt lat="47.95805" lon="-3.84679">
        <ele>147.22</ele>
        <time>2014-04-22T13:33:07Z</time>
      </trkpt>
      <trkpt lat="47.95812" lon="-3.84643">
        <ele>146.26</ele>
        <time>2014-04-22T13:33:29Z</time>
      </trkpt>
      <trkpt lat="47.95818" lon="-3.84611">
        <ele>144.82</ele>
        <time>2014-04-22T13:33:48Z</time>
      </trkpt>
      <trkpt lat="47.9582" lon="-3.84603">
        <ele>143.37</ele>
        <time>2014-04-22T13:33:53Z</time>
      </trkpt>
      <trkpt lat="47.95826" lon="-3.84584">
        <ele>142.41</ele>
        <time>2014-04-22T13:34:04Z</time>
      </trkpt>
      <trkpt lat="47.95832" lon="-3.84562">
        <ele>140.01</ele>
        <time>2014-04-22T13:34:18Z</time>
      </trkpt>
      <trkpt lat="47.95834" lon="-3.84544">
        <ele>141.93</ele>
        <time>2014-04-22T13:34:34Z</time>
      </trkpt>
      <trkpt lat="47.95834" lon="-3.84544">
        <ele>141.93</ele>
        <time>2014-04-22T13:34:52Z</time>
      </trkpt>
      <trkpt lat="47.95836" lon="-3.84546">
        <ele>140.97</ele>
        <time>2014-04-22T13:35:07Z</time>
      </trkpt>
      <trkpt lat="47.95839" lon="-3.8455">
        <ele>139.53</ele>
        <time>2014-04-22T13:35:21Z</time>
      </trkpt>
      <trkpt lat="47.95841" lon="-3.84551">
        <ele>138.57</ele>
        <time>2014-04-22T13:35:45Z</time>
      </trkpt>
      <trkpt lat="47.95841" lon="-3.84552">
        <ele>139.53</ele>
        <time>2014-04-22T13:36:13Z</time>
      </trkpt>
      <trkpt lat="47.95842" lon="-3.84553">
        <ele>140.01</ele>
        <time>2014-04-22T13:36:38Z</time>
      </trkpt>
      <trkpt lat="47.95841" lon="-3.84554">
        <ele>140.01</ele>
        <time>2014-04-22T13:37:07Z</time>
      </trkpt>
      <trkpt lat="47.95841" lon="-3.84554">
        <ele>140.49</ele>
        <time>2014-04-22T13:37:33Z</time>
      </trkpt>
      <trkpt lat="47.95842" lon="-3.84554">
        <ele>140.49</ele>
        <time>2014-04-22T13:38:02Z</time>
      </trkpt>
      <trkpt lat="47.95842" lon="-3.84554">
        <ele>140.49</ele>
        <time>2014-04-22T13:38:26Z</time>
      </trkpt>
      <trkpt lat="47.95841" lon="-3.84554">
        <ele>140.97</ele>
        <time>2014-04-22T13:38:47Z</time>
      </trkpt>
      <trkpt lat="47.9584" lon="-3.84554">
        <ele>141.93</ele>
        <time>2014-04-22T13:39:13Z</time>
      </trkpt>
      <trkpt lat="47.95841" lon="-3.84553">
        <ele>142.89</ele>
        <time>2014-04-22T13:39:34Z</time>
      </trkpt>
      <trkpt lat="47.9584" lon="-3.84553">
        <ele>142.89</ele>
        <time>2014-04-22T13:39:57Z</time>
      </trkpt>
      <trkpt lat="47.95839" lon="-3.84553">
        <ele>143.37</ele>
        <time>2014-04-22T13:40:21Z</time>
      </trkpt>
      <trkpt lat="47.95839" lon="-3.84552">
        <ele>143.37</ele>
        <time>2014-04-22T13:40:47Z</time>
      </trkpt>
      <trkpt lat="47.95839" lon="-3.84553">
        <ele>143.85</ele>
        <time>2014-04-22T13:41:16Z</time>
      </trkpt>
      <trkpt lat="47.9584" lon="-3.84552">
        <ele>143.85</ele>
        <time>2014-04-22T13:41:41Z</time>
      </trkpt>
      <trkpt lat="47.95836" lon="-3.84546">
        <ele>144.34</ele>
        <time>2014-04-22T13:41:48Z</time>
      </trkpt>
      <trkpt lat="47.95827" lon="-3.84532">
        <ele>147.22</ele>
        <time>2014-04-22T13:42:03Z</time>
      </trkpt>
      <trkpt lat="47.95827" lon="-3.84521">
        <ele>146.26</ele>
        <time>2014-04-22T13:42:12Z</time>
      </trkpt>
      <trkpt lat="47.95826" lon="-3.84493">
        <ele>146.74</ele>
        <time>2014-04-22T13:42:28Z</time>
      </trkpt>
      <trkpt lat="47.95825" lon="-3.8446">
        <ele>144.82</ele>
        <time>2014-04-22T13:42:47Z</time>
      </trkpt>
      <trkpt lat="47.95824" lon="-3.84458">
        <ele>144.82</ele>
        <time>2014-04-22T13:42:48Z</time>
      </trkpt>
      <trkpt lat="47.95823" lon="-3.84425">
        <ele>142.89</ele>
        <time>2014-04-22T13:43:07Z</time>
      </trkpt>
      <trkpt lat="47.95822" lon="-3.84389">
        <ele>141.93</ele>
        <time>2014-04-22T13:43:27Z</time>
      </trkpt>
      <trkpt lat="47.95821" lon="-3.84357">
        <ele>142.89</ele>
        <time>2014-04-22T13:43:45Z</time>
      </trkpt>
      <trkpt lat="47.9582" lon="-3.84322">
        <ele>140.01</ele>
        <time>2014-04-22T13:44:02Z</time>
      </trkpt>
      <trkpt lat="47.95813" lon="-3.84297">
        <ele>139.53</ele>
        <time>2014-04-22T13:44:17Z</time>
      </trkpt>
      <trkpt lat="47.95813" lon="-3.84291">
        <ele>139.53</ele>
        <time>2014-04-22T13:44:20Z</time>
      </trkpt>
      <trkpt lat="47.95812" lon="-3.84264">
        <ele>140.49</ele>
        <time>2014-04-22T13:44:36Z</time>
      </trkpt>
      <trkpt lat="47.95812" lon="-3.8423">
        <ele>145.78</ele>
        <time>2014-04-22T13:44:53Z</time>
      </trkpt>
      <trkpt lat="47.95812" lon="-3.84193">
        <ele>146.74</ele>
        <time>2014-04-22T13:45:13Z</time>
      </trkpt>
      <trkpt lat="47.95812" lon="-3.84188">
        <ele>146.74</ele>
        <time>2014-04-22T13:45:15Z</time>
      </trkpt>
      <trkpt lat="47.95808" lon="-3.84159">
        <ele>148.66</ele>
        <time>2014-04-22T13:45:31Z</time>
      </trkpt>
      <trkpt lat="47.95805" lon="-3.84127">
        <ele>149.62</ele>
        <time>2014-04-22T13:45:49Z</time>
      </trkpt>
      <trkpt lat="47.95799" lon="-3.84099">
        <ele>148.18</ele>
        <time>2014-04-22T13:46:05Z</time>
      </trkpt>
      <trkpt lat="47.95797" lon="-3.84078">
        <ele>143.85</ele>
        <time>2014-04-22T13:46:17Z</time>
      </trkpt>
      <trkpt lat="47.95796" lon="-3.84077">
        <ele>143.85</ele>
        <time>2014-04-22T13:46:18Z</time>
      </trkpt>
      <trkpt lat="47.95779" lon="-3.84032">
        <ele>142.41</ele>
        <time>2014-04-22T13:46:38Z</time>
      </trkpt>
      <trkpt lat="47.95778" lon="-3.8403">
        <ele>142.41</ele>
        <time>2014-04-22T13:46:39Z</time>
      </trkpt>
      <trkpt lat="47.95764" lon="-3.84017">
        <ele>142.41</ele>
        <time>2014-04-22T13:46:55Z</time>
      </trkpt>
      <trkpt lat="47.95754" lon="-3.8401">
        <ele>141.45</ele>
        <time>2014-04-22T13:47:08Z</time>
      </trkpt>
      <trkpt lat="47.95729" lon="-3.84007">
        <ele>139.05</ele>
        <time>2014-04-22T13:47:26Z</time>
      </trkpt>
      <trkpt lat="47.95709" lon="-3.84008">
        <ele>138.57</ele>
        <time>2014-04-22T13:47:41Z</time>
      </trkpt>
      <trkpt lat="47.95684" lon="-3.84006">
        <ele>136.64</ele>
        <time>2014-04-22T13:47:56Z</time>
      </trkpt>
      <trkpt lat="47.95664" lon="-3.84009">
        <ele>139.05</ele>
        <time>2014-04-22T13:48:11Z</time>
      </trkpt>
      <trkpt lat="47.95643" lon="-3.84004">
        <ele>140.01</ele>
        <time>2014-04-22T13:48:29Z</time>
      </trkpt>
      <trkpt lat="47.95623" lon="-3.83996">
        <ele>139.05</ele>
        <time>2014-04-22T13:48:45Z</time>
      </trkpt>
      <trkpt lat="47.95605" lon="-3.83982">
        <ele>139.53</ele>
        <time>2014-04-22T13:48:56Z</time>
      </trkpt>
      <trkpt lat="47.95586" lon="-3.83968">
        <ele>138.09</ele>
        <time>2014-04-22T13:49:11Z</time>
      </trkpt>
      <trkpt lat="47.95568" lon="-3.83961">
        <ele>132.8</ele>
        <time>2014-04-22T13:49:28Z</time>
      </trkpt>
      <trkpt lat="47.95548" lon="-3.8396">
        <ele>131.84</ele>
        <time>2014-04-22T13:49:42Z</time>
      </trkpt>
      <trkpt lat="47.95531" lon="-3.83956">
        <ele>129.92</ele>
        <time>2014-04-22T13:49:57Z</time>
      </trkpt>
      <trkpt lat="47.95509" lon="-3.83945">
        <ele>133.28</ele>
        <time>2014-04-22T13:50:11Z</time>
      </trkpt>
      <trkpt lat="47.95491" lon="-3.83939">
        <ele>134.72</ele>
        <time>2014-04-22T13:50:24Z</time>
      </trkpt>
      <trkpt lat="47.95482" lon="-3.83931">
        <ele>135.68</ele>
        <time>2014-04-22T13:50:32Z</time>
      </trkpt>
      <trkpt lat="47.95462" lon="-3.83926">
        <ele>136.64</ele>
        <time>2014-04-22T13:50:47Z</time>
      </trkpt>
      <trkpt lat="47.95461" lon="-3.83926">
        <ele>136.64</ele>
        <time>2014-04-22T13:50:48Z</time>
      </trkpt>
      <trkpt lat="47.9544" lon="-3.83915">
        <ele>138.09</ele>
        <time>2014-04-22T13:51:05Z</time>
      </trkpt>
      <trkpt lat="47.95425" lon="-3.83906">
        <ele>138.57</ele>
        <time>2014-04-22T13:51:18Z</time>
      </trkpt>
      <trkpt lat="47.95405" lon="-3.83894">
        <ele>137.61</ele>
        <time>2014-04-22T13:51:34Z</time>
      </trkpt>
      <trkpt lat="47.95388" lon="-3.8388">
        <ele>137.13</ele>
        <time>2014-04-22T13:51:52Z</time>
      </trkpt>
      <trkpt lat="47.95372" lon="-3.8387">
        <ele>136.64</ele>
        <time>2014-04-22T13:52:08Z</time>
      </trkpt>
      <trkpt lat="47.95352" lon="-3.83855">
        <ele>136.64</ele>
        <time>2014-04-22T13:52:25Z</time>
      </trkpt>
      <trkpt lat="47.95346" lon="-3.83851">
        <ele>137.61</ele>
        <time>2014-04-22T13:52:36Z</time>
      </trkpt>
      <trkpt lat="47.95333" lon="-3.83826">
        <ele>140.49</ele>
        <time>2014-04-22T13:52:51Z</time>
      </trkpt>
      <trkpt lat="47.95341" lon="-3.83812">
        <ele>140.01</ele>
        <time>2014-04-22T13:53:04Z</time>
      </trkpt>
      <trkpt lat="47.95355" lon="-3.83792">
        <ele>139.05</ele>
        <time>2014-04-22T13:53:20Z</time>
      </trkpt>
      <trkpt lat="47.95367" lon="-3.83769">
        <ele>139.53</ele>
        <time>2014-04-22T13:53:35Z</time>
      </trkpt>
      <trkpt lat="47.95374" lon="-3.83741">
        <ele>140.97</ele>
        <time>2014-04-22T13:53:49Z</time>
      </trkpt>
      <trkpt lat="47.95381" lon="-3.83722">
        <ele>142.41</ele>
        <time>2014-04-22T13:54:03Z</time>
      </trkpt>
      <trkpt lat="47.95381" lon="-3.83721">
        <ele>142.89</ele>
        <time>2014-04-22T13:54:04Z</time>
      </trkpt>
      <trkpt lat="47.95359" lon="-3.83698">
        <ele>146.74</ele>
        <time>2014-04-22T13:54:22Z</time>
      </trkpt>
      <trkpt lat="47.9534" lon="-3.83681">
        <ele>148.18</ele>
        <time>2014-04-22T13:54:37Z</time>
      </trkpt>
      <trkpt lat="47.9533" lon="-3.8366">
        <ele>148.18</ele>
        <time>2014-04-22T13:54:51Z</time>
      </trkpt>
      <trkpt lat="47.95315" lon="-3.8365">
        <ele>149.14</ele>
        <time>2014-04-22T13:55:04Z</time>
      </trkpt>
      <trkpt lat="47.95295" lon="-3.83639">
        <ele>148.66</ele>
        <time>2014-04-22T13:55:20Z</time>
      </trkpt>
      <trkpt lat="47.95276" lon="-3.83629">
        <ele>146.74</ele>
        <time>2014-04-22T13:55:35Z</time>
      </trkpt>
      <trkpt lat="47.95258" lon="-3.83618">
        <ele>144.82</ele>
        <time>2014-04-22T13:55:50Z</time>
      </trkpt>
      <trkpt lat="47.95246" lon="-3.83616">
        <ele>142.89</ele>
        <time>2014-04-22T13:55:59Z</time>
      </trkpt>
      <trkpt lat="47.95223" lon="-3.83602">
        <ele>140.97</ele>
        <time>2014-04-22T13:56:17Z</time>
      </trkpt>
      <trkpt lat="47.95202" lon="-3.83597">
        <ele>141.45</ele>
        <time>2014-04-22T13:56:32Z</time>
      </trkpt>
      <trkpt lat="47.95185" lon="-3.83613">
        <ele>141.45</ele>
        <time>2014-04-22T13:56:48Z</time>
      </trkpt>
      <trkpt lat="47.95171" lon="-3.83635">
        <ele>140.97</ele>
        <time>2014-04-22T13:57:03Z</time>
      </trkpt>
      <trkpt lat="47.95153" lon="-3.8365">
        <ele>139.05</ele>
        <time>2014-04-22T13:57:20Z</time>
      </trkpt>
      <trkpt lat="47.95145" lon="-3.83647">
        <ele>137.61</ele>
        <time>2014-04-22T13:57:28Z</time>
      </trkpt>
      <trkpt lat="47.9514" lon="-3.83645">
        <ele>137.13</ele>
        <time>2014-04-22T13:57:32Z</time>
      </trkpt>
      <trkpt lat="47.95119" lon="-3.83634">
        <ele>134.24</ele>
        <time>2014-04-22T13:57:49Z</time>
      </trkpt>
      <trkpt lat="47.95113" lon="-3.83631">
        <ele>135.2</ele>
        <time>2014-04-22T13:57:54Z</time>
      </trkpt>
      <trkpt lat="47.9511" lon="-3.83627">
        <ele>135.68</ele>
        <time>2014-04-22T13:57:57Z</time>
      </trkpt>
      <trkpt lat="47.95087" lon="-3.83607">
        <ele>136.64</ele>
        <time>2014-04-22T13:58:14Z</time>
      </trkpt>
      <trkpt lat="47.95079" lon="-3.83595">
        <ele>136.64</ele>
        <time>2014-04-22T13:58:24Z</time>
      </trkpt>
      <trkpt lat="47.95065" lon="-3.83581">
        <ele>133.76</ele>
        <time>2014-04-22T13:58:39Z</time>
      </trkpt>
      <trkpt lat="47.95051" lon="-3.83561">
        <ele>132.8</ele>
        <time>2014-04-22T13:58:54Z</time>
      </trkpt>
      <trkpt lat="47.95042" lon="-3.83535">
        <ele>133.76</ele>
        <time>2014-04-22T13:59:11Z</time>
      </trkpt>
      <trkpt lat="47.95039" lon="-3.83522">
        <ele>135.68</ele>
        <time>2014-04-22T13:59:17Z</time>
      </trkpt>
      <trkpt lat="47.9503" lon="-3.83489">
        <ele>139.53</ele>
        <time>2014-04-22T13:59:33Z</time>
      </trkpt>
      <trkpt lat="47.95023" lon="-3.83461">
        <ele>140.97</ele>
        <time>2014-04-22T13:59:48Z</time>
      </trkpt>
      <trkpt lat="47.95012" lon="-3.83431">
        <ele>140.97</ele>
        <time>2014-04-22T14:00:04Z</time>
      </trkpt>
      <trkpt lat="47.9501" lon="-3.83425">
        <ele>140.01</ele>
        <time>2014-04-22T14:00:07Z</time>
      </trkpt>
      <trkpt lat="47.95006" lon="-3.8342">
        <ele>139.53</ele>
        <time>2014-04-22T14:00:11Z</time>
      </trkpt>
      <trkpt lat="47.94989" lon="-3.83409">
        <ele>139.53</ele>
        <time>2014-04-22T14:00:26Z</time>
      </trkpt>
      <trkpt lat="47.94971" lon="-3.83399">
        <ele>138.09</ele>
        <time>2014-04-22T14:00:41Z</time>
      </trkpt>
      <trkpt lat="47.94954" lon="-3.83379">
        <ele>137.13</ele>
        <time>2014-04-22T14:00:59Z</time>
      </trkpt>
      <trkpt lat="47.94939" lon="-3.83366">
        <ele>135.68</ele>
        <time>2014-04-22T14:01:13Z</time>
      </trkpt>
      <trkpt lat="47.94921" lon="-3.83349">
        <ele>132.32</ele>
        <time>2014-04-22T14:01:30Z</time>
      </trkpt>
      <trkpt lat="47.949" lon="-3.83322">
        <ele>127.99</ele>
        <time>2014-04-22T14:01:50Z</time>
      </trkpt>
      <trkpt lat="47.94881" lon="-3.83304">
        <ele>129.43</ele>
        <time>2014-04-22T14:02:06Z</time>
      </trkpt>
      <trkpt lat="47.94863" lon="-3.83283">
        <ele>131.36</ele>
        <time>2014-04-22T14:02:22Z</time>
      </trkpt>
      <trkpt lat="47.94853" lon="-3.83274">
        <ele>131.36</ele>
        <time>2014-04-22T14:02:33Z</time>
      </trkpt>
      <trkpt lat="47.94848" lon="-3.83278">
        <ele>131.84</ele>
        <time>2014-04-22T14:02:38Z</time>
      </trkpt>
      <trkpt lat="47.94827" lon="-3.83286">
        <ele>131.84</ele>
        <time>2014-04-22T14:02:54Z</time>
      </trkpt>
      <trkpt lat="47.94825" lon="-3.83288">
        <ele>131.84</ele>
        <time>2014-04-22T14:02:56Z</time>
      </trkpt>
      <trkpt lat="47.94804" lon="-3.83301">
        <ele>130.4</ele>
        <time>2014-04-22T14:03:14Z</time>
      </trkpt>
      <trkpt lat="47.94784" lon="-3.83311">
        <ele>128.95</ele>
        <time>2014-04-22T14:03:31Z</time>
      </trkpt>
      <trkpt lat="47.94763" lon="-3.83321">
        <ele>127.51</ele>
        <time>2014-04-22T14:03:48Z</time>
      </trkpt>
      <trkpt lat="47.94744" lon="-3.83336">
        <ele>127.99</ele>
        <time>2014-04-22T14:04:04Z</time>
      </trkpt>
      <trkpt lat="47.94728" lon="-3.83352">
        <ele>129.43</ele>
        <time>2014-04-22T14:04:21Z</time>
      </trkpt>
      <trkpt lat="47.94715" lon="-3.83367">
        <ele>129.92</ele>
        <time>2014-04-22T14:04:33Z</time>
      </trkpt>
      <trkpt lat="47.94711" lon="-3.8337">
        <ele>130.4</ele>
        <time>2014-04-22T14:04:37Z</time>
      </trkpt>
      <trkpt lat="47.94691" lon="-3.83395">
        <ele>130.88</ele>
        <time>2014-04-22T14:04:54Z</time>
      </trkpt>
      <trkpt lat="47.94678" lon="-3.83413">
        <ele>130.88</ele>
        <time>2014-04-22T14:05:06Z</time>
      </trkpt>
      <trkpt lat="47.94663" lon="-3.83437">
        <ele>131.36</ele>
        <time>2014-04-22T14:05:23Z</time>
      </trkpt>
      <trkpt lat="47.94648" lon="-3.8346">
        <ele>130.88</ele>
        <time>2014-04-22T14:05:40Z</time>
      </trkpt>
      <trkpt lat="47.94634" lon="-3.83486">
        <ele>130.4</ele>
        <time>2014-04-22T14:05:56Z</time>
      </trkpt>
      <trkpt lat="47.94619" lon="-3.83506">
        <ele>130.88</ele>
        <time>2014-04-22T14:06:11Z</time>
      </trkpt>
      <trkpt lat="47.94607" lon="-3.83525">
        <ele>131.84</ele>
        <time>2014-04-22T14:06:25Z</time>
      </trkpt>
      <trkpt lat="47.94598" lon="-3.83543">
        <ele>134.24</ele>
        <time>2014-04-22T14:06:41Z</time>
      </trkpt>
      <trkpt lat="47.94585" lon="-3.83565">
        <ele>134.72</ele>
        <time>2014-04-22T14:06:59Z</time>
      </trkpt>
      <trkpt lat="47.94568" lon="-3.83591">
        <ele>136.64</ele>
        <time>2014-04-22T14:07:17Z</time>
      </trkpt>
      <trkpt lat="47.94562" lon="-3.83606">
        <ele>139.05</ele>
        <time>2014-04-22T14:07:28Z</time>
      </trkpt>
      <trkpt lat="47.94547" lon="-3.83632">
        <ele>140.97</ele>
        <time>2014-04-22T14:07:46Z</time>
      </trkpt>
      <trkpt lat="47.94525" lon="-3.83661">
        <ele>141.45</ele>
        <time>2014-04-22T14:08:05Z</time>
      </trkpt>
      <trkpt lat="47.94507" lon="-3.8368">
        <ele>140.97</ele>
        <time>2014-04-22T14:08:20Z</time>
      </trkpt>
      <trkpt lat="47.9449" lon="-3.83692">
        <ele>143.37</ele>
        <time>2014-04-22T14:08:35Z</time>
      </trkpt>
      <trkpt lat="47.94473" lon="-3.83699">
        <ele>144.82</ele>
        <time>2014-04-22T14:08:53Z</time>
      </trkpt>
      <trkpt lat="47.94456" lon="-3.83702">
        <ele>143.37</ele>
        <time>2014-04-22T14:09:10Z</time>
      </trkpt>
      <trkpt lat="47.94441" lon="-3.83704">
        <ele>140.01</ele>
        <time>2014-04-22T14:09:27Z</time>
      </trkpt>
      <trkpt lat="47.94422" lon="-3.83705">
        <ele>136.16</ele>
        <time>2014-04-22T14:09:41Z</time>
      </trkpt>
      <trkpt lat="47.94409" lon="-3.83707">
        <ele>136.16</ele>
        <time>2014-04-22T14:09:54Z</time>
      </trkpt>
      <trkpt lat="47.94383" lon="-3.83709">
        <ele>139.05</ele>
        <time>2014-04-22T14:10:10Z</time>
      </trkpt>
      <trkpt lat="47.94357" lon="-3.83715">
        <ele>142.41</ele>
        <time>2014-04-22T14:10:26Z</time>
      </trkpt>
      <trkpt lat="47.94329" lon="-3.83728">
        <ele>141.45</ele>
        <time>2014-04-22T14:10:45Z</time>
      </trkpt>
      <trkpt lat="47.94309" lon="-3.8374">
        <ele>140.01</ele>
        <time>2014-04-22T14:11:01Z</time>
      </trkpt>
      <trkpt lat="47.94288" lon="-3.83757">
        <ele>140.97</ele>
        <time>2014-04-22T14:11:16Z</time>
      </trkpt>
      <trkpt lat="47.94271" lon="-3.83768">
        <ele>144.34</ele>
        <time>2014-04-22T14:11:31Z</time>
      </trkpt>
      <trkpt lat="47.94254" lon="-3.83777">
        <ele>146.26</ele>
        <time>2014-04-22T14:11:46Z</time>
      </trkpt>
      <trkpt lat="47.94236" lon="-3.83795">
        <ele>144.34</ele>
        <time>2014-04-22T14:11:59Z</time>
      </trkpt>
      <trkpt lat="47.94216" lon="-3.83809">
        <ele>141.93</ele>
        <time>2014-04-22T14:12:12Z</time>
      </trkpt>
      <trkpt lat="47.942" lon="-3.83824">
        <ele>140.01</ele>
        <time>2014-04-22T14:12:26Z</time>
      </trkpt>
      <trkpt lat="47.94186" lon="-3.83835">
        <ele>140.49</ele>
        <time>2014-04-22T14:12:40Z</time>
      </trkpt>
      <trkpt lat="47.94176" lon="-3.83845">
        <ele>139.05</ele>
        <time>2014-04-22T14:12:54Z</time>
      </trkpt>
      <trkpt lat="47.94165" lon="-3.83854">
        <ele>137.13</ele>
        <time>2014-04-22T14:13:05Z</time>
      </trkpt>
      <trkpt lat="47.94146" lon="-3.83869">
        <ele>133.76</ele>
        <time>2014-04-22T14:13:19Z</time>
      </trkpt>
      <trkpt lat="47.94132" lon="-3.8388">
        <ele>132.32</ele>
        <time>2014-04-22T14:13:32Z</time>
      </trkpt>
      <trkpt lat="47.94116" lon="-3.83897">
        <ele>132.32</ele>
        <time>2014-04-22T14:13:44Z</time>
      </trkpt>
      <trkpt lat="47.94103" lon="-3.83907">
        <ele>131.84</ele>
        <time>2014-04-22T14:13:58Z</time>
      </trkpt>
      <trkpt lat="47.94087" lon="-3.83917">
        <ele>128.95</ele>
        <time>2014-04-22T14:14:13Z</time>
      </trkpt>
      <trkpt lat="47.94084" lon="-3.83919">
        <ele>128.95</ele>
        <time>2014-04-22T14:14:16Z</time>
      </trkpt>
      <trkpt lat="47.94076" lon="-3.83923">
        <ele>129.43</ele>
        <time>2014-04-22T14:14:23Z</time>
      </trkpt>
      <trkpt lat="47.94053" lon="-3.83934">
        <ele>125.11</ele>
        <time>2014-04-22T14:14:39Z</time>
      </trkpt>
      <trkpt lat="47.9404" lon="-3.83941">
        <ele>122.22</ele>
        <time>2014-04-22T14:14:54Z</time>
      </trkpt>
      <trkpt lat="47.94029" lon="-3.83948">
        <ele>121.26</ele>
        <time>2014-04-22T14:15:08Z</time>
      </trkpt>
      <trkpt lat="47.94013" lon="-3.83956">
        <ele>119.34</ele>
        <time>2014-04-22T14:15:22Z</time>
      </trkpt>
      <trkpt lat="47.93998" lon="-3.83964">
        <ele>118.86</ele>
        <time>2014-04-22T14:15:36Z</time>
      </trkpt>
      <trkpt lat="47.93988" lon="-3.83971">
        <ele>116.94</ele>
        <time>2014-04-22T14:15:46Z</time>
      </trkpt>
      <trkpt lat="47.93979" lon="-3.8398">
        <ele>115.5</ele>
        <time>2014-04-22T14:15:52Z</time>
      </trkpt>
      <trkpt lat="47.93962" lon="-3.84002">
        <ele>114.05</ele>
        <time>2014-04-22T14:16:09Z</time>
      </trkpt>
      <trkpt lat="47.93946" lon="-3.84017">
        <ele>114.53</ele>
        <time>2014-04-22T14:16:24Z</time>
      </trkpt>
      <trkpt lat="47.93934" lon="-3.84035">
        <ele>112.61</ele>
        <time>2014-04-22T14:16:38Z</time>
      </trkpt>
      <trkpt lat="47.93918" lon="-3.84043">
        <ele>111.17</ele>
        <time>2014-04-22T14:16:53Z</time>
      </trkpt>
      <trkpt lat="47.93898" lon="-3.84048">
        <ele>109.73</ele>
        <time>2014-04-22T14:17:10Z</time>
      </trkpt>
      <trkpt lat="47.93894" lon="-3.84049">
        <ele>109.25</ele>
        <time>2014-04-22T14:17:14Z</time>
      </trkpt>
      <trkpt lat="47.9388" lon="-3.84062">
        <ele>110.69</ele>
        <time>2014-04-22T14:17:28Z</time>
      </trkpt>
      <trkpt lat="47.93883" lon="-3.84071">
        <ele>110.69</ele>
        <time>2014-04-22T14:17:33Z</time>
      </trkpt>
      <trkpt lat="47.93886" lon="-3.84091">
        <ele>107.32</ele>
        <time>2014-04-22T14:17:46Z</time>
      </trkpt>
      <trkpt lat="47.93886" lon="-3.84096">
        <ele>106.36</ele>
        <time>2014-04-22T14:17:49Z</time>
      </trkpt>
      <trkpt lat="47.93891" lon="-3.84122">
        <ele>103</ele>
        <time>2014-04-22T14:18:05Z</time>
      </trkpt>
      <trkpt lat="47.93895" lon="-3.84147">
        <ele>100.6</ele>
        <time>2014-04-22T14:18:22Z</time>
      </trkpt>
      <trkpt lat="47.93898" lon="-3.84165">
        <ele>101.56</ele>
        <time>2014-04-22T14:18:34Z</time>
      </trkpt>
      <trkpt lat="47.939" lon="-3.8419">
        <ele>101.56</ele>
        <time>2014-04-22T14:18:48Z</time>
      </trkpt>
      <trkpt lat="47.93903" lon="-3.8421">
        <ele>101.56</ele>
        <time>2014-04-22T14:19:01Z</time>
      </trkpt>
      <trkpt lat="47.93903" lon="-3.84217">
        <ele>102.04</ele>
        <time>2014-04-22T14:19:06Z</time>
      </trkpt>
      <trkpt lat="47.93905" lon="-3.84243">
        <ele>103.96</ele>
        <time>2014-04-22T14:19:23Z</time>
      </trkpt>
      <trkpt lat="47.93908" lon="-3.84264">
        <ele>109.73</ele>
        <time>2014-04-22T14:19:35Z</time>
      </trkpt>
      <trkpt lat="47.93912" lon="-3.84293">
        <ele>112.61</ele>
        <time>2014-04-22T14:19:53Z</time>
      </trkpt>
      <trkpt lat="47.93913" lon="-3.84302">
        <ele>112.13</ele>
        <time>2014-04-22T14:19:58Z</time>
      </trkpt>
      <trkpt lat="47.93922" lon="-3.84327">
        <ele>115.5</ele>
        <time>2014-04-22T14:20:13Z</time>
      </trkpt>
      <trkpt lat="47.9393" lon="-3.84359">
        <ele>122.22</ele>
        <time>2014-04-22T14:20:32Z</time>
      </trkpt>
      <trkpt lat="47.93938" lon="-3.84392">
        <ele>123.67</ele>
        <time>2014-04-22T14:20:51Z</time>
      </trkpt>
      <trkpt lat="47.93945" lon="-3.84427">
        <ele>123.67</ele>
        <time>2014-04-22T14:21:11Z</time>
      </trkpt>
      <trkpt lat="47.93949" lon="-3.84456">
        <ele>123.19</ele>
        <time>2014-04-22T14:21:27Z</time>
      </trkpt>
      <trkpt lat="47.93954" lon="-3.8449">
        <ele>125.11</ele>
        <time>2014-04-22T14:21:45Z</time>
      </trkpt>
      <trkpt lat="47.93961" lon="-3.84514">
        <ele>123.19</ele>
        <time>2014-04-22T14:22:00Z</time>
      </trkpt>
      <trkpt lat="47.93968" lon="-3.84548">
        <ele>122.71</ele>
        <time>2014-04-22T14:22:18Z</time>
      </trkpt>
      <trkpt lat="47.93969" lon="-3.84556">
        <ele>123.19</ele>
        <time>2014-04-22T14:22:22Z</time>
      </trkpt>
      <trkpt lat="47.93978" lon="-3.84585">
        <ele>124.15</ele>
        <time>2014-04-22T14:22:37Z</time>
      </trkpt>
      <trkpt lat="47.93987" lon="-3.84613">
        <ele>122.71</ele>
        <time>2014-04-22T14:22:54Z</time>
      </trkpt>
      <trkpt lat="47.93991" lon="-3.84625">
        <ele>122.71</ele>
        <time>2014-04-22T14:23:01Z</time>
      </trkpt>
      <trkpt lat="47.94" lon="-3.84656">
        <ele>123.19</ele>
        <time>2014-04-22T14:23:19Z</time>
      </trkpt>
      <trkpt lat="47.94002" lon="-3.84672">
        <ele>123.19</ele>
        <time>2014-04-22T14:23:28Z</time>
      </trkpt>
      <trkpt lat="47.94005" lon="-3.84709">
        <ele>123.67</ele>
        <time>2014-04-22T14:23:46Z</time>
      </trkpt>
      <trkpt lat="47.94005" lon="-3.84737">
        <ele>120.78</ele>
        <time>2014-04-22T14:24:03Z</time>
      </trkpt>
      <trkpt lat="47.94005" lon="-3.84769">
        <ele>117.9</ele>
        <time>2014-04-22T14:24:21Z</time>
      </trkpt>
      <trkpt lat="47.94003" lon="-3.84801">
        <ele>119.82</ele>
        <time>2014-04-22T14:24:36Z</time>
      </trkpt>
      <trkpt lat="47.94002" lon="-3.84833">
        <ele>125.11</ele>
        <time>2014-04-22T14:24:49Z</time>
      </trkpt>
      <trkpt lat="47.94002" lon="-3.84866">
        <ele>127.03</ele>
        <time>2014-04-22T14:25:07Z</time>
      </trkpt>
      <trkpt lat="47.94008" lon="-3.84894">
        <ele>126.55</ele>
        <time>2014-04-22T14:25:22Z</time>
      </trkpt>
      <trkpt lat="47.94008" lon="-3.84918">
        <ele>124.63</ele>
        <time>2014-04-22T14:25:36Z</time>
      </trkpt>
      <trkpt lat="47.94012" lon="-3.84946">
        <ele>123.67</ele>
        <time>2014-04-22T14:25:51Z</time>
      </trkpt>
      <trkpt lat="47.94008" lon="-3.84974">
        <ele>119.82</ele>
        <time>2014-04-22T14:26:08Z</time>
      </trkpt>
      <trkpt lat="47.94008" lon="-3.85006">
        <ele>121.26</ele>
        <time>2014-04-22T14:26:23Z</time>
      </trkpt>
      <trkpt lat="47.94011" lon="-3.85036">
        <ele>123.19</ele>
        <time>2014-04-22T14:26:39Z</time>
      </trkpt>
      <trkpt lat="47.94014" lon="-3.85064">
        <ele>124.63</ele>
        <time>2014-04-22T14:26:54Z</time>
      </trkpt>
      <trkpt lat="47.94017" lon="-3.85093">
        <ele>121.74</ele>
        <time>2014-04-22T14:27:09Z</time>
      </trkpt>
      <trkpt lat="47.94017" lon="-3.85127">
        <ele>118.86</ele>
        <time>2014-04-22T14:27:28Z</time>
      </trkpt>
      <trkpt lat="47.94018" lon="-3.85154">
        <ele>117.9</ele>
        <time>2014-04-22T14:27:43Z</time>
      </trkpt>
      <trkpt lat="47.94021" lon="-3.85178">
        <ele>116.94</ele>
        <time>2014-04-22T14:27:58Z</time>
      </trkpt>
      <trkpt lat="47.94021" lon="-3.8518">
        <ele>116.94</ele>
        <time>2014-04-22T14:27:59Z</time>
      </trkpt>
      <trkpt lat="47.9402" lon="-3.85215">
        <ele>119.82</ele>
        <time>2014-04-22T14:28:14Z</time>
      </trkpt>
      <trkpt lat="47.94022" lon="-3.85244">
        <ele>122.22</ele>
        <time>2014-04-22T14:28:30Z</time>
      </trkpt>
      <trkpt lat="47.94022" lon="-3.85268">
        <ele>121.26</ele>
        <time>2014-04-22T14:28:43Z</time>
      </trkpt>
      <trkpt lat="47.94022" lon="-3.85295">
        <ele>122.22</ele>
        <time>2014-04-22T14:28:57Z</time>
      </trkpt>
      <trkpt lat="47.9402" lon="-3.85321">
        <ele>122.22</ele>
        <time>2014-04-22T14:29:11Z</time>
      </trkpt>
      <trkpt lat="47.94021" lon="-3.85332">
        <ele>122.22</ele>
        <time>2014-04-22T14:29:17Z</time>
      </trkpt>
      <trkpt lat="47.94015" lon="-3.8536">
        <ele>120.3</ele>
        <time>2014-04-22T14:29:34Z</time>
      </trkpt>
      <trkpt lat="47.94014" lon="-3.85366">
        <ele>119.82</ele>
        <time>2014-04-22T14:29:38Z</time>
      </trkpt>
      <trkpt lat="47.94014" lon="-3.85379">
        <ele>118.86</ele>
        <time>2014-04-22T14:29:45Z</time>
      </trkpt>
      <trkpt lat="47.94004" lon="-3.85383">
        <ele>118.86</ele>
        <time>2014-04-22T14:29:55Z</time>
      </trkpt>
      <trkpt lat="47.93995" lon="-3.85389">
        <ele>119.34</ele>
        <time>2014-04-22T14:30:03Z</time>
      </trkpt>
      <trkpt lat="47.93976" lon="-3.85401">
        <ele>118.38</ele>
        <time>2014-04-22T14:30:19Z</time>
      </trkpt>
      <trkpt lat="47.9396" lon="-3.85416">
        <ele>124.15</ele>
        <time>2014-04-22T14:30:34Z</time>
      </trkpt>
      <trkpt lat="47.93943" lon="-3.85429">
        <ele>125.11</ele>
        <time>2014-04-22T14:30:50Z</time>
      </trkpt>
      <trkpt lat="47.93942" lon="-3.8543">
        <ele>125.11</ele>
        <time>2014-04-22T14:30:51Z</time>
      </trkpt>
      <trkpt lat="47.93921" lon="-3.85444">
        <ele>123.67</ele>
        <time>2014-04-22T14:31:10Z</time>
      </trkpt>
      <trkpt lat="47.93908" lon="-3.85454">
        <ele>124.15</ele>
        <time>2014-04-22T14:31:21Z</time>
      </trkpt>
      <trkpt lat="47.939" lon="-3.85457">
        <ele>122.22</ele>
        <time>2014-04-22T14:31:27Z</time>
      </trkpt>
      <trkpt lat="47.93878" lon="-3.85471">
        <ele>119.82</ele>
        <time>2014-04-22T14:31:47Z</time>
      </trkpt>
      <trkpt lat="47.93856" lon="-3.85486">
        <ele>120.3</ele>
        <time>2014-04-22T14:32:05Z</time>
      </trkpt>
      <trkpt lat="47.93841" lon="-3.85494">
        <ele>117.42</ele>
        <time>2014-04-22T14:32:20Z</time>
      </trkpt>
      <trkpt lat="47.93826" lon="-3.85505">
        <ele>112.61</ele>
        <time>2014-04-22T14:32:35Z</time>
      </trkpt>
      <trkpt lat="47.93818" lon="-3.85511">
        <ele>112.13</ele>
        <time>2014-04-22T14:32:47Z</time>
      </trkpt>
      <trkpt lat="47.93815" lon="-3.85512">
        <ele>112.13</ele>
        <time>2014-04-22T14:32:49Z</time>
      </trkpt>
      <trkpt lat="47.93805" lon="-3.85515">
        <ele>112.13</ele>
        <time>2014-04-22T14:32:58Z</time>
      </trkpt>
      <trkpt lat="47.93797" lon="-3.85522">
        <ele>114.05</ele>
        <time>2014-04-22T14:33:11Z</time>
      </trkpt>
      <trkpt lat="47.93791" lon="-3.85525">
        <ele>114.53</ele>
        <time>2014-04-22T14:33:26Z</time>
      </trkpt>
      <trkpt lat="47.93778" lon="-3.85528">
        <ele>115.01</ele>
        <time>2014-04-22T14:33:42Z</time>
      </trkpt>
      <trkpt lat="47.93775" lon="-3.8553">
        <ele>115.5</ele>
        <time>2014-04-22T14:33:56Z</time>
      </trkpt>
      <trkpt lat="47.93772" lon="-3.85533">
        <ele>114.53</ele>
        <time>2014-04-22T14:34:13Z</time>
      </trkpt>
    </trkseg>
  </trk>
</gpx>